createdAt,value
2019-03-06T00:02:21.128Z,2.77
2019-03-06T00:04:50.011Z,2.58
2019-03-06T00:07:18.849Z,2.90
2019-03-06T00:09:47.982Z,2.40
2019-03-06T00:12:16.937Z,2.40
2019-03-06T00:14:45.964Z,2.47
2019-03-06T00:17:14.947Z,2.50
2019-03-06T00:19:44.072Z,2.60
2019-03-06T00:22:32.200Z,2.40
2019-03-06T00:25:01.059Z,2.40
2019-03-06T00:27:30.028Z,2.50
2019-03-06T00:29:59.161Z,2.67
2019-03-06T00:32:27.988Z,2.25
2019-03-06T00:34:58.626Z,2.45
2019-03-06T00:40:05.131Z,2.33
2019-03-06T00:42:53.382Z,2.22
2019-03-06T00:45:22.383Z,2.50
2019-03-06T00:47:51.392Z,2.35
2019-03-06T00:50:20.394Z,2.60
2019-03-06T00:52:49.387Z,2.58
2019-03-06T00:55:18.542Z,2.60
2019-03-06T00:57:47.528Z,2.30
2019-03-06T01:00:17.576Z,2.33
2019-03-06T01:02:46.799Z,2.20
2019-03-06T01:05:15.794Z,2.05
2019-03-06T01:07:44.819Z,2.27
2019-03-06T01:10:13.852Z,2.55
2019-03-06T01:12:42.824Z,2.47
2019-03-06T01:15:11.881Z,2.33
2019-03-06T01:17:40.822Z,2.77
2019-03-06T01:20:09.887Z,2.45
2019-03-06T01:22:38.895Z,2.52
2019-03-06T01:25:07.976Z,3.00
2019-03-06T01:27:36.852Z,2.70
2019-03-06T01:30:06.633Z,3.08
2019-03-06T01:32:36.015Z,2.55
2019-03-06T01:35:22.284Z,2.80
2019-03-06T01:38:12.804Z,2.70
2019-03-06T01:43:28.034Z,2.80
2019-03-06T01:45:57.062Z,2.67
2019-03-06T01:48:45.088Z,3.45
2019-03-06T01:51:14.109Z,2.72
2019-03-06T01:53:43.135Z,2.70
2019-03-06T01:56:12.033Z,2.58
2019-03-06T01:58:41.127Z,2.60
2019-03-06T02:01:10.157Z,3.15
2019-03-06T02:03:39.185Z,2.60
2019-03-06T04:15:09.614Z,2.47
2019-03-06T04:17:38.841Z,2.80
2019-03-06T04:20:09.929Z,2.40
2019-03-06T04:22:58.036Z,3.08
2019-03-06T04:25:26.886Z,3.05
2019-03-06T04:27:55.679Z,3.77
2019-03-06T04:30:24.794Z,3.10
2019-03-06T04:32:53.709Z,3.00
2019-03-06T04:35:22.570Z,2.72
2019-03-06T04:38:10.482Z,2.95
2019-03-06T04:40:39.506Z,3.40
2019-03-06T04:43:08.632Z,3.42
2019-03-06T04:45:37.488Z,3.02
2019-03-06T04:48:06.412Z,3.12
2019-03-06T04:50:35.487Z,3.20
2019-03-06T04:53:04.501Z,2.52
2019-03-06T04:55:33.341Z,3.45
2019-03-06T04:58:02.262Z,4.28
2019-03-06T05:00:31.246Z,3.83
2019-03-06T05:03:00.153Z,3.77
2019-03-06T05:05:29.073Z,5.22
2019-03-06T05:07:57.870Z,4.65
2019-03-06T05:10:26.763Z,4.87
2019-03-06T05:12:55.966Z,4.62
2019-03-06T05:15:24.917Z,4.08
2019-03-06T05:18:12.925Z,5.60
2019-03-06T05:20:41.796Z,3.35
2019-03-06T05:23:10.685Z,4.70
2019-03-06T05:25:39.681Z,3.80
2019-03-06T05:28:09.722Z,5.70
2019-03-06T05:30:38.759Z,4.80
2019-03-06T05:33:08.401Z,4.80
2019-03-06T05:36:04.351Z,4.55
2019-03-06T05:38:40.807Z,5.65
2019-03-06T05:41:09.814Z,4.08
2019-03-06T05:43:38.942Z,3.85
2019-03-06T05:46:07.819Z,4.55
2019-03-06T05:48:36.743Z,6.50
2019-03-06T05:51:05.745Z,4.53
2019-03-06T05:53:34.869Z,5.00
2019-03-06T05:56:03.904Z,4.65
2019-03-06T05:58:35.854Z,5.42
2019-03-06T06:01:04.863Z,4.90
2019-03-06T06:03:33.893Z,4.95
2019-03-06T06:06:03.485Z,5.97
2019-03-06T06:08:32.526Z,4.85
2019-03-06T06:11:01.465Z,7.30
2019-03-06T06:13:31.080Z,6.47
2019-03-06T06:16:00.535Z,6.03
2019-03-06T06:18:29.753Z,5.55
2019-03-06T06:21:17.648Z,6.58
2019-03-06T06:23:53.436Z,6.12
2019-03-06T06:26:22.546Z,7.60
2019-03-06T06:28:51.604Z,7.55
2019-03-06T06:31:20.619Z,8.20
2019-03-06T06:33:49.648Z,8.00
2019-03-06T06:36:18.584Z,7.53
2019-03-06T06:38:47.663Z,7.55
2019-03-06T06:41:16.781Z,9.45
2019-03-06T06:43:45.699Z,8.40
2019-03-06T06:46:14.607Z,10.80
2019-03-06T06:48:43.788Z,16.15
2019-03-06T06:51:54.163Z,18.35
2019-03-06T06:54:37.111Z,17.45
2019-03-06T06:57:45.940Z,13.62
2019-03-06T07:00:26.487Z,14.35
2019-03-06T07:03:38.554Z,18.57
2019-03-06T07:06:18.758Z,16.60
2019-03-06T07:09:14.764Z,16.15
2019-03-06T07:12:08.264Z,14.83
2019-03-06T07:14:54.575Z,14.63
2019-03-06T07:17:29.695Z,14.38
2019-03-06T07:20:32.205Z,13.03
2019-03-06T07:23:15.494Z,13.78
2019-03-06T07:26:21.973Z,14.33
2019-03-06T07:29:09.929Z,14.05
2019-03-06T07:31:51.737Z,13.70
2019-03-06T07:34:42.378Z,12.60
2019-03-06T07:37:15.579Z,11.08
2019-03-06T07:40:00.685Z,12.28
2019-03-06T07:42:52.002Z,11.83
2019-03-06T07:45:59.992Z,10.43
2019-03-06T07:48:51.191Z,11.73
2019-03-06T07:51:41.327Z,10.68
2019-03-06T07:54:27.790Z,9.43
2019-03-06T07:57:15.698Z,9.75
2019-03-06T07:59:44.852Z,9.53
2019-03-06T08:02:17.791Z,8.60
2019-03-06T08:04:53.729Z,8.78
2019-03-06T08:07:22.822Z,8.90
2019-03-06T08:09:52.283Z,8.40
2019-03-06T08:12:38.305Z,8.38
2019-03-06T08:15:35.407Z,7.83
2019-03-06T08:18:19.088Z,7.47
2019-03-06T08:21:05.329Z,7.28
2019-03-06T08:23:51.891Z,6.90
2019-03-06T08:26:21.037Z,6.67
2019-03-06T08:28:49.848Z,6.80
2019-03-06T08:31:28.911Z,6.62
2019-03-06T08:33:57.930Z,6.95
2019-03-06T08:36:27.173Z,6.67
2019-03-06T08:38:56.233Z,7.50
2019-03-06T08:41:25.108Z,7.10
2019-03-06T08:43:53.983Z,7.33
2019-03-06T08:46:42.107Z,7.58
2019-03-06T08:49:30.301Z,6.50
2019-03-06T08:52:20.923Z,6.92
2019-03-06T08:55:07.914Z,6.62
2019-03-06T08:57:58.511Z,6.47
2019-03-06T09:00:55.250Z,6.72
2019-03-06T09:03:46.537Z,6.05
2019-03-06T09:06:33.798Z,6.15
2019-03-06T09:09:20.322Z,6.10
2019-03-06T09:12:08.257Z,6.58
2019-03-06T09:14:56.132Z,7.40
2019-03-06T09:17:44.147Z,7.08
2019-03-06T09:20:41.106Z,6.75
2019-03-06T09:23:27.736Z,6.42
2019-03-06T09:26:15.640Z,6.33
2019-03-06T09:29:06.514Z,6.78
2019-03-06T09:32:12.400Z,6.25
2019-03-06T09:35:06.248Z,5.80
2019-03-06T09:37:52.910Z,5.47
2019-03-06T09:40:28.457Z,5.87
2019-03-06T09:43:14.860Z,5.87
2019-03-06T09:45:58.840Z,4.37
2019-03-06T09:48:42.603Z,4.95
2019-03-06T09:51:24.505Z,5.42
2019-03-06T09:54:10.814Z,4.50
2019-03-06T09:56:58.929Z,4.97
2019-03-06T09:59:35.577Z,5.22
2019-03-06T10:02:26.436Z,4.60
2019-03-06T10:05:06.584Z,5.28
2019-03-06T10:07:54.571Z,5.30
2019-03-06T10:10:46.298Z,4.53
2019-03-06T10:13:19.517Z,5.25
2019-03-06T10:16:08.253Z,4.22
2019-03-06T10:18:47.365Z,4.58
2019-03-06T10:21:16.251Z,3.90
2019-03-06T10:23:45.467Z,4.17
2019-03-06T10:26:14.394Z,3.90
2019-03-06T10:28:43.243Z,3.80
2019-03-06T10:31:12.597Z,3.22
2019-03-06T10:33:41.422Z,3.50
2019-03-06T10:36:10.832Z,3.33
2019-03-06T10:38:39.870Z,3.47
2019-03-06T10:41:08.856Z,3.58
2019-03-06T10:43:37.839Z,2.87
2019-03-06T10:46:08.448Z,2.95
2019-03-06T10:48:37.337Z,3.30
2019-03-06T10:51:06.533Z,3.62
2019-03-06T10:53:41.579Z,2.85
2019-03-06T10:56:07.383Z,3.20
2019-03-06T10:58:36.575Z,3.12
2019-03-06T11:01:05.922Z,2.92
2019-03-06T11:03:40.891Z,3.23
2019-03-06T11:06:10.328Z,2.85
2019-03-06T11:08:39.433Z,3.00
2019-03-06T11:11:08.856Z,3.10
2019-03-06T11:13:38.901Z,2.92
2019-03-06T11:16:08.425Z,2.67
2019-03-06T11:18:37.405Z,3.00
2019-03-06T11:21:06.736Z,2.65
2019-03-06T11:23:35.772Z,2.83
2019-03-06T11:26:05.199Z,2.70
2019-03-06T11:28:34.098Z,2.30
2019-03-06T11:31:03.055Z,2.50
2019-03-06T11:33:31.935Z,1.95
2019-03-06T11:36:00.808Z,2.42
2019-03-06T11:38:50.394Z,2.25
2019-03-06T11:41:19.269Z,2.43
2019-03-06T11:43:48.060Z,2.00
2019-03-06T11:46:17.067Z,1.82
2019-03-06T11:48:46.109Z,2.35
2019-03-06T11:51:15.091Z,2.15
2019-03-06T11:53:44.092Z,2.37
2019-03-06T11:56:13.112Z,2.20
2019-03-06T11:58:43.146Z,1.92
2019-03-06T12:01:16.042Z,1.80
2019-03-06T12:03:45.124Z,2.17
2019-03-06T12:06:14.097Z,1.80
2019-03-06T12:08:45.913Z,2.87
2019-03-06T12:11:13.693Z,1.80
2019-03-06T12:13:42.619Z,1.70
2019-03-06T12:16:12.001Z,1.77
2019-03-06T12:18:40.912Z,1.90
2019-03-06T12:21:10.213Z,1.77
2019-03-06T12:23:39.594Z,1.60
2019-03-06T12:26:08.501Z,1.22
2019-03-06T12:28:37.281Z,1.60
2019-03-06T12:31:07.565Z,1.60
2019-03-06T12:33:36.408Z,1.77
2019-03-06T12:36:07.028Z,1.82
2019-03-06T12:38:36.042Z,1.77
2019-03-06T12:41:05.370Z,1.80
2019-03-06T12:43:34.464Z,1.50
2019-03-06T12:46:24.315Z,1.67
2019-03-06T12:49:19.279Z,1.70
2019-03-06T12:51:54.478Z,1.75
2019-03-06T12:54:18.909Z,2.22
2019-03-06T12:56:47.916Z,1.50
2019-03-06T12:59:16.911Z,1.87
2019-03-06T13:01:46.144Z,1.82
2019-03-06T13:04:15.037Z,1.62
2019-03-06T13:06:44.172Z,1.90
2019-03-06T13:09:19.924Z,1.57
2019-03-06T13:11:48.860Z,1.72
2019-03-06T13:14:17.850Z,2.40
2019-03-06T13:16:46.890Z,1.77
2019-03-06T13:19:15.901Z,1.75
2019-03-06T13:21:44.941Z,1.72
2019-03-06T13:24:14.315Z,1.95
2019-03-06T13:26:43.247Z,1.90
2019-03-06T13:29:12.263Z,2.00
2019-03-06T13:31:41.815Z,1.70
2019-03-06T13:34:32.036Z,2.10
2019-03-06T13:37:01.067Z,3.60
2019-03-06T13:39:30.117Z,4.05
2019-03-06T13:41:59.143Z,4.67
2019-03-06T13:44:28.056Z,6.35
2019-03-06T13:46:57.105Z,5.60
2019-03-06T13:49:26.117Z,5.53
2019-03-06T13:51:55.060Z,5.50
2019-03-06T13:54:24.062Z,5.17
2019-03-06T13:56:53.008Z,5.30
2019-03-06T13:59:21.769Z,4.42
2019-03-06T14:01:50.748Z,4.50
2019-03-06T14:04:19.749Z,4.12
2019-03-06T14:06:48.738Z,4.78
2019-03-06T14:09:17.700Z,4.62
2019-03-06T14:11:46.807Z,4.90
2019-03-06T14:14:15.680Z,4.28
2019-03-06T14:16:44.827Z,4.90
2019-03-06T14:19:13.865Z,4.70
2019-03-06T14:21:42.749Z,4.42
2019-03-06T14:24:11.620Z,4.37
2019-03-06T14:26:40.909Z,3.90
2019-03-06T14:29:10.945Z,4.03
2019-03-06T14:31:39.881Z,4.45
2019-03-06T14:34:08.892Z,3.70
2019-03-06T14:36:38.035Z,4.08
2019-03-06T14:39:26.994Z,3.07
2019-03-06T14:41:56.024Z,3.98
2019-03-06T14:44:24.856Z,3.42
2019-03-06T14:46:53.766Z,3.77
2019-03-06T14:49:22.771Z,3.95
2019-03-06T14:51:51.876Z,3.50
2019-03-06T14:54:20.812Z,3.60
2019-03-06T14:56:49.890Z,3.72
2019-03-06T14:59:18.842Z,3.50
2019-03-06T15:01:47.826Z,3.45
2019-03-06T15:04:16.773Z,3.90
2019-03-06T15:06:45.861Z,3.77
2019-03-06T15:09:26.016Z,3.30
2019-03-06T15:11:54.804Z,3.60
2019-03-06T15:14:23.887Z,3.45
2019-03-06T15:16:52.822Z,3.83
2019-03-06T15:19:22.027Z,3.30
2019-03-06T15:21:51.101Z,3.33
2019-03-06T15:24:19.966Z,4.22
2019-03-06T15:26:48.874Z,3.45
2019-03-06T15:29:17.878Z,3.25
2019-03-06T15:32:06.110Z,3.45
2019-03-06T15:34:35.089Z,2.90
2019-03-06T15:37:03.987Z,3.30
2019-03-06T15:39:42.773Z,2.77
2019-03-06T15:42:07.805Z,2.58
2019-03-06T15:44:37.010Z,3.15
2019-03-06T15:47:06.250Z,3.62
2019-03-06T15:49:35.194Z,2.92
2019-03-06T15:52:04.067Z,3.40
2019-03-06T15:54:33.079Z,3.55
2019-03-06T15:57:02.294Z,3.22
2019-03-06T15:59:32.795Z,4.15
2019-03-06T16:02:01.774Z,3.40
2019-03-06T16:04:30.803Z,3.22
2019-03-06T16:06:59.701Z,3.12
2019-03-06T16:09:28.666Z,2.80
2019-03-06T16:11:58.095Z,3.20
2019-03-06T16:14:46.331Z,2.67
2019-03-06T16:17:15.215Z,2.85
2019-03-06T16:19:44.122Z,3.10
2019-03-06T16:22:13.430Z,3.10
2019-03-06T16:24:42.682Z,3.52
2019-03-06T16:27:11.504Z,2.95
2019-03-06T16:29:40.498Z,2.40
2019-03-06T16:32:09.370Z,2.62
2019-03-06T16:34:38.298Z,2.87
2019-03-06T16:37:07.495Z,2.75
2019-03-06T16:39:55.567Z,2.50
2019-03-06T16:42:24.517Z,2.80
2019-03-06T16:44:53.545Z,2.83
2019-03-06T16:47:22.786Z,2.60
2019-03-06T16:49:53.685Z,2.70
2019-03-06T16:52:22.585Z,2.30
2019-03-06T16:54:51.548Z,2.45
2019-03-06T16:57:20.710Z,2.45
2019-03-06T16:59:49.614Z,2.50
2019-03-06T17:02:18.670Z,2.58
2019-03-06T17:04:47.555Z,2.58
2019-03-06T17:07:16.448Z,2.45
2019-03-06T17:10:04.737Z,2.42
2019-03-06T17:12:33.740Z,2.22
2019-03-06T17:15:02.804Z,2.50
2019-03-06T17:17:31.759Z,2.20
2019-03-06T17:20:00.795Z,2.15
2019-03-06T17:22:29.733Z,2.40
2019-03-06T17:24:58.795Z,2.30
2019-03-06T17:27:27.756Z,2.85
2019-03-06T17:29:56.687Z,2.58
2019-03-06T17:32:25.477Z,2.33
2019-03-06T17:34:54.496Z,2.52
2019-03-06T17:37:23.607Z,2.30
2019-03-06T17:39:52.510Z,2.62
2019-03-06T17:42:21.372Z,2.52
2019-03-06T17:44:50.382Z,2.30
2019-03-06T17:47:19.348Z,2.20
2019-03-06T17:49:48.530Z,2.33
2019-03-06T17:52:17.554Z,2.40
2019-03-06T17:54:46.944Z,2.25
2019-03-06T17:57:15.795Z,2.27
2019-03-06T17:59:44.581Z,2.00
2019-03-06T18:02:13.660Z,2.00
2019-03-06T18:04:42.698Z,2.27
2019-03-06T18:07:11.926Z,2.30
2019-03-06T18:09:40.976Z,2.50
2019-03-06T18:12:09.957Z,2.40
2019-03-06T18:14:38.976Z,2.30
2019-03-06T18:17:08.032Z,1.85
2019-03-06T18:19:36.991Z,2.10
2019-03-06T18:22:06.053Z,2.20
2019-03-06T18:24:34.963Z,2.30
2019-03-06T18:27:04.029Z,2.15
2019-03-06T18:29:33.096Z,2.35
2019-03-06T18:32:02.067Z,2.65
2019-03-06T18:34:30.982Z,2.00
2019-03-06T18:37:00.089Z,2.40
2019-03-06T18:39:29.094Z,2.00
2019-03-06T18:41:58.029Z,2.10
2019-03-06T18:44:27.148Z,2.02
2019-03-06T18:46:56.196Z,1.87
2019-03-06T18:49:25.030Z,1.60
2019-03-06T18:51:53.845Z,1.90
2019-03-06T18:54:22.961Z,1.90
2019-03-06T18:56:52.188Z,1.82
2019-03-06T18:59:21.146Z,1.90
2019-03-06T19:01:50.216Z,1.80
2019-03-06T19:04:19.184Z,2.00
2019-03-06T19:06:48.457Z,2.02
2019-03-06T19:09:17.286Z,1.80
2019-03-06T19:11:46.819Z,2.08
2019-03-06T19:14:15.951Z,1.82
2019-03-06T19:16:44.837Z,1.90
2019-03-06T19:19:13.755Z,1.65
2019-03-06T19:21:42.960Z,1.90
2019-03-06T19:24:11.798Z,1.70
2019-03-06T19:26:41.403Z,1.60
2019-03-06T19:29:11.322Z,1.65
2019-03-06T19:31:40.365Z,1.85
2019-03-06T19:34:09.407Z,1.67
2019-03-06T19:36:38.443Z,1.50
2019-03-06T19:39:07.377Z,1.60
2019-03-06T19:41:36.783Z,1.60
2019-03-06T19:44:05.804Z,2.05
2019-03-06T19:46:34.838Z,2.00
2019-03-06T19:49:03.976Z,1.87
2019-03-06T19:51:32.963Z,1.82
2019-03-06T19:54:01.927Z,1.70
2019-03-06T19:56:31.455Z,1.80
2019-03-06T19:59:00.486Z,1.80
2019-03-06T20:01:29.624Z,1.77
2019-03-06T20:03:58.606Z,1.75
2019-03-06T20:06:27.513Z,1.52
2019-03-06T20:08:56.616Z,1.90
2019-03-06T20:11:25.477Z,1.55
2019-03-06T20:13:54.354Z,1.75
2019-03-06T20:16:23.752Z,1.80
2019-03-06T20:18:52.586Z,1.60
2019-03-06T20:21:21.519Z,1.55
2019-03-06T20:23:50.658Z,1.50
2019-03-06T20:26:19.612Z,1.90
2019-03-06T20:28:48.654Z,1.35
2019-03-06T20:31:17.664Z,1.70
2019-03-06T20:33:46.576Z,1.50
2019-03-06T20:36:15.462Z,1.70
2019-03-06T20:38:44.500Z,1.55
2019-03-06T20:41:13.397Z,1.60
2019-03-06T20:43:42.868Z,1.40
2019-03-06T20:46:11.722Z,1.60
2019-03-06T20:48:40.656Z,1.57
2019-03-06T20:51:28.673Z,1.50
2019-03-06T20:53:57.723Z,1.47
2019-03-06T20:56:26.590Z,1.62
2019-03-06T20:58:57.711Z,1.40
2019-03-06T21:01:26.291Z,1.60
2019-03-06T21:03:55.330Z,1.52
2019-03-06T21:06:33.029Z,1.30
2019-03-06T21:08:55.090Z,1.50
2019-03-06T21:11:23.914Z,1.20
2019-03-06T21:13:52.934Z,1.45
2019-03-06T21:16:21.926Z,1.32
2019-03-06T21:18:50.904Z,1.50
2019-03-06T21:21:19.894Z,1.70
2019-03-06T21:23:48.932Z,1.60
2019-03-06T21:26:17.912Z,1.62
2019-03-06T21:28:46.971Z,1.52
2019-03-06T21:31:16.269Z,1.80
2019-03-06T21:33:45.231Z,1.70
2019-03-06T21:36:14.000Z,1.22
2019-03-06T21:38:42.900Z,1.30
2019-03-06T21:41:11.994Z,1.55
2019-03-06T21:43:41.065Z,1.50
2019-03-06T21:46:10.013Z,1.65
2019-03-06T21:48:38.935Z,1.30
2019-03-06T21:51:07.814Z,1.57
2019-03-06T21:53:38.979Z,1.47
2019-03-06T21:56:07.402Z,1.20
2019-03-06T21:58:36.308Z,1.30
2019-03-06T22:01:07.054Z,1.80
2019-03-06T22:03:36.157Z,1.30
2019-03-06T22:06:05.117Z,1.42
2019-03-06T22:08:34.053Z,1.20
2019-03-06T22:11:02.924Z,1.47
2019-03-06T22:13:31.956Z,1.37
2019-03-06T22:16:00.950Z,1.37
2019-03-06T22:18:29.983Z,1.50
2019-03-06T22:20:58.981Z,1.27
2019-03-06T22:23:27.902Z,1.60
2019-03-06T22:25:56.908Z,1.45
2019-03-06T22:28:25.915Z,1.52
2019-03-06T22:30:54.920Z,1.30
2019-03-06T22:33:25.268Z,1.25
2019-03-06T22:35:54.437Z,1.27
2019-03-06T22:38:23.400Z,1.50
2019-03-06T22:40:52.327Z,1.30
2019-03-06T22:43:21.376Z,1.50
2019-03-06T22:45:50.204Z,1.50
2019-03-06T22:48:19.209Z,1.50
2019-03-06T22:50:48.004Z,1.50
2019-03-06T22:53:16.998Z,1.60
2019-03-06T22:55:45.785Z,1.50
2019-03-06T22:58:14.691Z,1.67
2019-03-06T23:01:19.741Z,1.57
2019-03-06T23:03:48.609Z,1.40
2019-03-06T23:06:17.511Z,1.50
2019-03-06T23:08:46.455Z,1.07
2019-03-06T23:11:15.446Z,1.30
2019-03-06T23:13:44.424Z,1.25
2019-03-06T23:16:13.509Z,1.40
2019-03-06T23:18:42.593Z,1.20
2019-03-06T23:21:11.509Z,1.40
2019-03-06T23:23:40.473Z,1.10
2019-03-06T23:26:09.497Z,1.50
2019-03-06T23:28:38.568Z,1.55
2019-03-06T23:31:07.629Z,1.30
2019-03-06T23:33:36.602Z,1.30
2019-03-06T23:36:05.569Z,1.40
2019-03-06T23:38:34.651Z,1.22
2019-03-06T23:41:03.659Z,1.40
2019-03-06T23:43:32.582Z,1.60
2019-03-06T23:46:20.634Z,1.30
2019-03-06T23:48:50.028Z,1.70
2019-03-06T23:51:24.317Z,1.40
2019-03-06T23:53:54.720Z,1.52
2019-03-06T23:58:51.704Z,1.20
